Time;durP1;ratioP1;P1;durP2;ratioP2;P2;SDS_P1;SDS_P2;PMS_P1;PMS_P2;Temp;Humidity;BMP_temperature;BMP_pressure;BME280_temperature;BME280_humidity;BME280_pressure;Samples;Min_cycle;Max_cycle;Signal;HPM_P1;HPM_P2
2023/06/06 00:01:02;;;;;;;1.88;1.67;;;;;;;;;;4998558;28;20034;-87
2023/06/06 00:03:28;;;;;;;2.08;1.55;;;;;;;;;;4995923;28;20500;-87
2023/06/06 00:05:54;;;;;;;2.50;1.50;;;;;;;;;;4996237;28;20536;-87
2023/06/06 00:08:23;;;;;;;2.10;1.90;;;;;;;;;;5013386;28;20118;-87
2023/06/06 00:10:49;;;;;;;1.80;1.35;;;;;;;;;;4996814;28;20034;-89
2023/06/06 00:13:15;;;;;;;3.08;1.48;;;;;;;;;;5013469;28;20036;-87
2023/06/06 00:15:41;;;;;;;4.05;1.50;;;;;;;;;;5013616;28;20026;-87
2023/06/06 00:18:06;;;;;;;2.83;1.52;;;;;;;;;;4996768;28;20026;-87
2023/06/06 00:20:32;;;;;;;1.92;1.63;;;;;;;;;;5002082;28;20057;-87
2023/06/06 00:22:59;;;;;;;3.53;1.70;;;;;;;;;;5000457;28;20026;-89
2023/06/06 00:25:25;;;;;;;3.65;1.67;;;;;;;;;;5002185;28;20080;-87
2023/06/06 00:27:50;;;;;;;2.38;1.65;;;;;;;;;;5018981;28;20033;-90
2023/06/06 00:30:15;;;;;;;1.98;1.67;;;;;;;;;;5021404;28;20044;-88
2023/06/06 00:32:41;;;;;;;2.15;1.60;;;;;;;;;;4999705;28;20034;-88
2023/06/06 00:35:07;;;;;;;2.72;1.60;;;;;;;;;;4999657;28;20484;-88
2023/06/06 00:37:32;;;;;;;1.83;1.45;;;;;;;;;;5016625;28;20116;-89
2023/06/06 00:39:57;;;;;;;4.15;1.80;;;;;;;;;;4999258;28;20105;-88
2023/06/06 00:42:23;;;;;;;2.70;1.60;;;;;;;;;;4999515;28;20026;-88
2023/06/06 00:44:48;;;;;;;1.70;1.58;;;;;;;;;;4999588;28;20022;-88
2023/06/06 00:47:14;;;;;;;2.33;1.60;;;;;;;;;;5016298;28;20042;-87
2023/06/06 00:49:41;;;;;;;3.80;1.90;;;;;;;;;;5016155;28;20480;-88
2023/06/06 00:52:07;;;;;;;1.60;1.50;;;;;;;;;;4998776;28;20057;-88
2023/06/06 00:54:32;;;;;;;3.15;1.60;;;;;;;;;;4999018;28;20080;-88
2023/06/06 00:57:00;;;;;;;2.35;1.80;;;;;;;;;;4982493;28;20025;-88
2023/06/06 00:59:25;;;;;;;1.63;1.52;;;;;;;;;;5017856;28;20044;-88
2023/06/06 01:01:51;;;;;;;1.70;1.55;;;;;;;;;;5024447;28;20049;-89
2023/06/06 01:04:17;;;;;;;4.28;1.65;;;;;;;;;;5003144;28;20073;-89
2023/06/06 01:06:43;;;;;;;3.42;1.90;;;;;;;;;;4983385;28;20417;-87
2023/06/06 01:09:10;;;;;;;2.78;1.90;;;;;;;;;;4983025;28;20026;-88
2023/06/06 01:11:57;;;;;;;1.90;1.52;;;;;;;;;;4985493;28;20141;-90
2023/06/06 01:14:31;;;;;;;2.30;1.45;;;;;;;;;;4998560;28;20018;-86
2023/06/06 01:16:57;;;;;;;;;;;;;;;;;;4999770;28;20053;-87
2023/06/06 01:19:29;;;;;;;2.75;1.48;;;;;;;;;;4999927;28;19999;-87
2023/06/06 01:21:55;;;;;;;2.15;1.50;;;;;;;;;;4998837;28;20036;-89
2023/06/06 01:24:22;;;;;;;3.20;1.45;;;;;;;;;;4998511;28;20025;-91
2023/06/06 01:26:47;;;;;;;4.47;1.50;;;;;;;;;;4998268;28;20018;-90
2023/06/06 01:29:13;;;;;;;2.63;1.58;;;;;;;;;;4998391;28;20032;-90
2023/06/06 01:31:43;;;;;;;3.70;1.67;;;;;;;;;;4997499;28;20026;-90
2023/06/06 01:34:33;;;;;;;1.52;1.40;;;;;;;;;;4982784;28;20041;-89
2023/06/06 01:37:14;;;;;;;1.77;1.52;;;;;;;;;;4998574;28;20503;-88
2023/06/06 01:39:43;;;;;;;2.67;1.60;;;;;;;;;;4982423;28;20030;-86
2023/06/06 01:42:09;;;;;;;4.80;1.63;;;;;;;;;;4998591;28;20021;-89
2023/06/06 01:44:35;;;;;;;2.85;1.80;;;;;;;;;;5000121;28;20088;-89
2023/06/06 01:47:02;;;;;;;2.83;1.55;;;;;;;;;;4998557;28;20060;-90
2023/06/06 01:49:28;;;;;;;2.33;1.55;;;;;;;;;;4998445;28;20064;-91
2023/06/06 01:51:54;;;;;;;2.50;1.40;;;;;;;;;;4998900;28;20389;-90
2023/06/06 01:54:19;;;;;;;2.60;1.85;;;;;;;;;;4981359;28;20065;-91
2023/06/06 01:56:45;;;;;;;1.50;1.38;;;;;;;;;;5015580;28;20053;-90
2023/06/06 01:59:10;;;;;;;2.10;1.65;;;;;;;;;;4981261;28;20120;-88
2023/06/06 02:01:35;;;;;;;2.38;1.77;;;;;;;;;;4997915;28;20034;-89
2023/06/06 02:04:01;;;;;;;2.65;1.65;;;;;;;;;;4998009;28;20100;-89
2023/06/06 02:06:26;;;;;;;2.28;1.67;;;;;;;;;;5015998;28;20049;-89
2023/06/06 02:08:52;;;;;;;2.97;1.42;;;;;;;;;;4998558;28;20030;-88
2023/06/06 02:11:17;;;;;;;6.63;1.52;;;;;;;;;;4981613;28;20036;-90
2023/06/06 02:13:42;;;;;;;4.10;1.30;;;;;;;;;;4997391;28;20496;-89
2023/06/06 02:16:08;;;;;;;4.35;1.65;;;;;;;;;;4980830;28;20087;-90
2023/06/06 02:18:33;;;;;;;2.88;1.73;;;;;;;;;;4997657;28;20034;-90
2023/06/06 02:20:59;;;;;;;1.80;1.70;;;;;;;;;;4981334;28;20105;-92
2023/06/06 02:23:24;;;;;;;2.15;1.60;;;;;;;;;;4998096;28;20092;-92
2023/06/06 02:25:50;;;;;;;3.70;1.33;;;;;;;;;;4998487;28;20033;-92
2023/06/06 02:28:16;;;;;;;5.85;1.50;;;;;;;;;;4981599;28;20060;-92
2023/06/06 02:30:41;;;;;;;7.95;1.70;;;;;;;;;;4997308;28;20025;-92
2023/06/06 02:33:07;;;;;;;4.80;1.58;;;;;;;;;;4998072;28;20038;-92
2023/06/06 02:35:33;;;;;;;1.70;1.60;;;;;;;;;;4997465;28;20029;-92
2023/06/06 02:37:59;;;;;;;3.17;1.77;;;;;;;;;;4997465;28;20030;-92
2023/06/06 02:40:25;;;;;;;1.90;1.60;;;;;;;;;;4981123;28;20600;-92
2023/06/06 02:42:50;;;;;;;3.90;1.50;;;;;;;;;;4996596;28;20037;-93
2023/06/06 02:45:16;;;;;;;1.98;1.45;;;;;;;;;;4981630;28;20125;-91
2023/06/06 02:47:41;;;;;;;2.20;1.50;;;;;;;;;;4996715;28;20022;-89
2023/06/06 02:50:07;;;;;;;2.25;1.60;;;;;;;;;;5014329;28;20041;-89
2023/06/06 02:52:32;;;;;;;3.85;1.63;;;;;;;;;;5014792;28;20021;-90
2023/06/06 02:54:58;;;;;;;2.13;1.65;;;;;;;;;;4980377;28;20381;-88
2023/06/06 02:57:24;;;;;;;2.95;1.50;;;;;;;;;;4998536;28;20041;-89
2023/06/06 02:59:51;;;;;;;2.60;1.70;;;;;;;;;;4996199;28;20080;-89
2023/06/06 03:02:17;;;;;;;2.42;1.50;;;;;;;;;;4996748;28;20026;-89
2023/06/06 03:04:43;;;;;;;4.80;1.63;;;;;;;;;;4979849;28;20524;-88
2023/06/06 03:07:10;;;;;;;1.40;1.30;;;;;;;;;;4980113;28;20045;-88
2023/06/06 03:09:36;;;;;;;2.20;1.67;;;;;;;;;;5014048;28;20034;-90
2023/06/06 03:12:01;;;;;;;2.33;1.55;;;;;;;;;;5013592;28;20030;-89
2023/06/06 03:14:27;;;;;;;3.67;1.50;;;;;;;;;;5001839;28;20037;-89
2023/06/06 03:16:54;;;;;;;3.97;1.70;;;;;;;;;;4996540;28;20049;-90
2023/06/06 03:19:19;;;;;;;1.60;1.50;;;;;;;;;;4980119;28;20037;-89
2023/06/06 03:21:45;;;;;;;2.25;1.55;;;;;;;;;;4979441;28;20037;-89
2023/06/06 03:24:13;;;;;;;1.60;1.50;;;;;;;;;;4996258;28;20454;-91
2023/06/06 03:26:39;;;;;;;2.65;1.63;;;;;;;;;;5013814;28;20113;-89
2023/06/06 03:29:05;;;;;;;1.75;1.40;;;;;;;;;;4996088;28;20030;-87
2023/06/06 03:31:31;;;;;;;2.60;1.60;;;;;;;;;;4980257;28;20049;-88
2023/06/06 03:33:57;;;;;;;1.83;1.50;;;;;;;;;;4996979;28;20065;-88
2023/06/06 03:36:22;;;;;;;1.67;1.40;;;;;;;;;;4996456;28;20142;-88
2023/06/06 03:38:48;;;;;;;2.50;1.40;;;;;;;;;;4996141;28;20026;-87
2023/06/06 03:41:14;;;;;;;1.50;1.40;;;;;;;;;;4996587;28;20117;-87
2023/06/06 03:43:42;;;;;;;1.58;1.48;;;;;;;;;;4996323;28;20495;-87
2023/06/06 03:46:07;;;;;;;1.73;1.63;;;;;;;;;;4980598;28;20392;-87
2023/06/06 03:48:32;;;;;;;1.80;1.65;;;;;;;;;;4980782;28;20037;-88
2023/06/06 03:50:58;;;;;;;2.45;1.63;;;;;;;;;;4983452;28;20029;-88
2023/06/06 03:53:23;;;;;;;1.58;1.40;;;;;;;;;;4998252;28;20144;-88
2023/06/06 03:55:48;;;;;;;2.05;1.50;;;;;;;;;;4985528;28;20425;-88
2023/06/06 03:58:14;;;;;;;1.50;1.40;;;;;;;;;;4986736;28;20044;-89
2023/06/06 04:00:39;;;;;;;2.17;1.98;;;;;;;;;;5000175;28;20029;-89
2023/06/06 04:03:05;;;;;;;1.40;1.30;;;;;;;;;;4984692;28;20065;-90
2023/06/06 04:05:32;;;;;;;1.50;1.40;;;;;;;;;;5017444;28;20060;-87
2023/06/06 04:07:59;;;;;;;2.58;1.70;;;;;;;;;;5003094;28;20109;-86
2023/06/06 04:10:24;;;;;;;2.17;1.58;;;;;;;;;;5015929;28;20054;-86
2023/06/06 04:12:50;;;;;;;2.22;1.77;;;;;;;;;;5018338;28;20426;-88
2023/06/06 04:15:15;;;;;;;1.85;1.60;;;;;;;;;;5000938;28;20033;-90
2023/06/06 04:17:40;;;;;;;4.18;2.50;;;;;;;;;;5000451;28;20030;-92
2023/06/06 04:20:08;;;;;;;5.82;3.03;;;;;;;;;;5001003;28;20095;-92
2023/06/06 04:22:33;;;;;;;6.00;3.17;;;;;;;;;;4987285;28;20036;-92
2023/06/06 04:24:59;;;;;;;7.78;3.10;;;;;;;;;;5017677;28;20491;-87
2023/06/06 04:27:24;;;;;;;5.43;2.80;;;;;;;;;;5019115;28;20469;-92
2023/06/06 04:29:52;;;;;;;9.88;3.30;;;;;;;;;;5001593;28;20080;-88
2023/06/06 04:32:21;;;;;;;7.20;3.40;;;;;;;;;;5001497;28;20026;-89
2023/06/06 04:34:47;;;;;;;11.75;3.80;;;;;;;;;;5000841;28;20485;-85
2023/06/06 04:37:13;;;;;;;8.45;3.33;;;;;;;;;;5017074;28;20077;-87
2023/06/06 04:39:39;;;;;;;8.05;3.45;;;;;;;;;;4999787;28;20025;-85
2023/06/06 04:42:06;;;;;;;13.27;4.25;;;;;;;;;;4999684;28;20091;-85
2023/06/06 04:44:41;;;;;;;5.43;2.67;;;;;;;;;;4999626;28;20026;-86
2023/06/06 04:47:10;;;;;;;6.45;2.85;;;;;;;;;;5016781;28;20022;-86
2023/06/06 04:49:38;;;;;;;5.82;2.15;;;;;;;;;;4999195;28;20362;-84
2023/06/06 04:52:08;;;;;;;7.05;2.78;;;;;;;;;;5016799;28;20507;-90
2023/06/06 04:54:35;;;;;;;5.13;2.60;;;;;;;;;;4982756;28;20029;-84
2023/06/06 04:57:00;;;;;;;5.28;2.67;;;;;;;;;;4982297;28;20041;-86
2023/06/06 04:59:27;;;;;;;41.05;8.93;;;;;;;;;;4981946;28;20034;-86
2023/06/06 05:01:53;;;;;;;54.65;11.90;;;;;;;;;;4998644;28;20382;-87
2023/06/06 05:04:18;;;;;;;53.13;12.00;;;;;;;;;;5000555;28;20408;-87
2023/06/06 05:06:46;;;;;;;40.20;10.57;;;;;;;;;;4997848;28;20029;-87
2023/06/06 05:09:12;;;;;;;50.10;12.73;;;;;;;;;;4999194;28;20048;-86
2023/06/06 05:11:37;;;;;;;37.72;10.77;;;;;;;;;;5015680;28;20477;-86
2023/06/06 05:14:03;;;;;;;37.40;9.32;;;;;;;;;;4998475;28;20029;-87
2023/06/06 05:16:28;;;;;;;37.63;9.55;;;;;;;;;;4981880;28;20028;-86
2023/06/06 05:18:54;;;;;;;25.45;7.40;;;;;;;;;;4997920;28;20030;-88
2023/06/06 05:21:20;;;;;;;28.45;8.10;;;;;;;;;;4981645;28;20022;-88
2023/06/06 05:23:45;;;;;;;24.20;6.70;;;;;;;;;;4997597;28;20026;-87
2023/06/06 05:26:11;;;;;;;21.77;7.18;;;;;;;;;;4998091;28;20017;-86
2023/06/06 05:28:37;;;;;;;24.50;7.03;;;;;;;;;;4997893;28;20034;-87
2023/06/06 05:31:03;;;;;;;20.42;5.97;;;;;;;;;;4982691;28;20053;-86
2023/06/06 05:33:31;;;;;;;15.10;4.97;;;;;;;;;;5019285;28;20037;-86
2023/06/06 05:35:57;;;;;;;19.92;5.50;;;;;;;;;;4998517;28;20504;-86
2023/06/06 05:38:23;;;;;;;13.38;4.97;;;;;;;;;;4997826;28;20034;-86
2023/06/06 05:40:48;;;;;;;12.30;4.60;;;;;;;;;;4981395;28;20030;-86
2023/06/06 05:43:14;;;;;;;11.05;4.60;;;;;;;;;;4997953;28;20488;-86
2023/06/06 05:45:43;;;;;;;8.32;4.20;;;;;;;;;;4997897;28;20370;-86
2023/06/06 05:48:08;;;;;;;8.70;3.45;;;;;;;;;;4999327;28;20053;-86
2023/06/06 05:50:34;;;;;;;8.95;3.38;;;;;;;;;;4997090;28;20121;-88
2023/06/06 05:52:59;;;;;;;8.52;3.40;;;;;;;;;;4997432;28;20029;-84
2023/06/06 05:55:32;;;;;;;9.50;3.90;;;;;;;;;;5014913;28;20548;-86
2023/06/06 05:57:58;;;;;;;9.35;3.50;;;;;;;;;;4997690;28;20030;-86
2023/06/06 06:00:25;;;;;;;10.27;3.00;;;;;;;;;;5005385;28;20033;-86
2023/06/06 06:02:51;;;;;;;8.38;3.00;;;;;;;;;;5002771;28;20034;-87
2023/06/06 06:05:18;;;;;;;8.73;3.38;;;;;;;;;;4999047;28;20520;-87
2023/06/06 06:07:44;;;;;;;7.47;3.20;;;;;;;;;;4999332;28;20018;-87
2023/06/06 06:10:10;;;;;;;5.32;2.35;;;;;;;;;;4998309;28;20045;-87
2023/06/06 06:12:35;;;;;;;5.00;2.35;;;;;;;;;;4998141;28;20429;-87
2023/06/06 06:15:01;;;;;;;8.05;2.53;;;;;;;;;;5015934;28;20025;-87
2023/06/06 06:17:26;;;;;;;5.53;2.33;;;;;;;;;;4997882;28;20115;-87
2023/06/06 06:19:51;;;;;;;4.38;2.10;;;;;;;;;;5015333;28;20034;-88
2023/06/06 06:22:17;;;;;;;4.78;2.10;;;;;;;;;;5015756;28;20036;-88
2023/06/06 06:24:43;;;;;;;4.32;2.10;;;;;;;;;;5016649;28;20040;-87
2023/06/06 06:27:08;;;;;;;4.30;1.95;;;;;;;;;;4997819;28;20026;-87
2023/06/06 06:29:33;;;;;;;4.82;2.00;;;;;;;;;;4996951;28;20034;-85
2023/06/06 06:31:59;;;;;;;11.10;2.40;;;;;;;;;;4997882;28;20029;-86
2023/06/06 06:34:25;;;;;;;4.93;2.17;;;;;;;;;;4997541;28;20033;-86
2023/06/06 06:36:50;;;;;;;5.45;2.10;;;;;;;;;;4997261;28;20381;-86
2023/06/06 06:39:18;;;;;;;4.07;1.70;;;;;;;;;;5014268;28;20026;-86
2023/06/06 06:41:45;;;;;;;9.60;2.08;;;;;;;;;;4997158;28;20060;-86
2023/06/06 06:44:11;;;;;;;8.77;1.80;;;;;;;;;;4996267;28;20017;-84
2023/06/06 06:46:36;;;;;;;4.68;1.80;;;;;;;;;;4996312;28;20045;-85
2023/06/06 06:49:02;;;;;;;6.15;2.10;;;;;;;;;;4996399;28;20033;-85
2023/06/06 06:51:30;;;;;;;10.15;1.90;;;;;;;;;;5014189;28;20029;-86
2023/06/06 06:53:57;;;;;;;8.82;2.03;;;;;;;;;;4980537;28;20025;-86
2023/06/06 06:56:24;;;;;;;12.23;2.00;;;;;;;;;;4996508;28;20026;-86
2023/06/06 06:58:50;;;;;;;29.50;2.45;;;;;;;;;;4980727;28;20113;-86
2023/06/06 07:01:19;;;;;;;15.43;2.40;;;;;;;;;;5014004;28;20148;-85
2023/06/06 07:03:47;;;;;;;10.90;1.85;;;;;;;;;;4996859;28;20520;-86
2023/06/06 07:06:13;;;;;;;9.45;1.98;;;;;;;;;;4995677;28;20029;-84
2023/06/06 07:08:41;;;;;;;7.93;1.80;;;;;;;;;;5013543;28;20034;-83
2023/06/06 07:11:07;;;;;;;12.10;1.85;;;;;;;;;;4996472;28;20469;-84
2023/06/06 07:13:33;;;;;;;13.45;1.90;;;;;;;;;;5013633;28;20040;-84
2023/06/06 07:15:58;;;;;;;12.75;1.80;;;;;;;;;;4996487;28;20038;-84
2023/06/06 07:18:24;;;;;;;8.15;2.40;;;;;;;;;;4995724;28;20030;-83
2023/06/06 07:20:49;;;;;;;9.38;1.83;;;;;;;;;;4996262;28;20034;-84
2023/06/06 07:23:15;;;;;;;6.85;1.63;;;;;;;;;;4995855;28;20040;-84
2023/06/06 07:25:41;;;;;;;12.88;2.10;;;;;;;;;;4980278;28;20421;-84
2023/06/06 07:28:21;;;;;;;6.82;2.17;;;;;;;;;;4992983;28;20030;-83
2023/06/06 07:30:48;;;;;;;6.88;1.73;;;;;;;;;;4973601;28;20021;-84
2023/06/06 07:33:13;;;;;;;8.65;2.00;;;;;;;;;;4979932;28;20037;-84
2023/06/06 07:35:39;;;;;;;7.25;2.28;;;;;;;;;;4996263;28;20031;-84
2023/06/06 07:38:05;;;;;;;5.35;1.88;;;;;;;;;;4972124;28;20414;-84
2023/06/06 07:40:30;;;;;;;6.68;1.67;;;;;;;;;;4980060;28;20026;-84
2023/06/06 07:42:57;;;;;;;7.93;2.13;;;;;;;;;;4980524;28;20448;-85
2023/06/06 07:45:22;;;;;;;6.85;1.95;;;;;;;;;;4997495;28;20405;-85
2023/06/06 07:47:51;;;;;;;11.65;2.00;;;;;;;;;;4997984;28;20031;-83
2023/06/06 07:50:17;;;;;;;4.93;1.70;;;;;;;;;;4980012;28;20160;-84
2023/06/06 07:52:46;;;;;;;4.97;1.90;;;;;;;;;;4980013;28;20037;-85
2023/06/06 07:55:12;;;;;;;4.80;1.95;;;;;;;;;;4997949;28;20061;-85
2023/06/06 07:57:41;;;;;;;4.25;1.63;;;;;;;;;;4963685;28;20049;-82
2023/06/06 08:00:13;;;;;;;5.47;1.60;;;;;;;;;;4980518;28;20030;-82
2023/06/06 08:02:41;;;;;;;8.95;1.77;;;;;;;;;;4977695;28;20042;-83
2023/06/06 08:05:08;;;;;;;3.45;1.83;;;;;;;;;;4963485;28;20524;-82
2023/06/06 08:07:36;;;;;;;6.53;1.60;;;;;;;;;;4996752;28;20037;-83
2023/06/06 08:10:02;;;;;;;5.90;1.77;;;;;;;;;;4981295;28;20061;-82
2023/06/06 08:12:27;;;;;;;3.13;1.58;;;;;;;;;;4997038;28;20022;-82
2023/06/06 08:14:52;;;;;;;4.93;1.80;;;;;;;;;;4979746;28;20033;-83
2023/06/06 08:17:18;;;;;;;2.67;1.80;;;;;;;;;;5007983;28;20034;-82
2023/06/06 08:19:43;;;;;;;3.40;1.58;;;;;;;;;;5016311;28;20029;-82
2023/06/06 08:22:09;;;;;;;4.65;1.50;;;;;;;;;;4999330;28;20088;-83
2023/06/06 08:24:36;;;;;;;5.28;1.70;;;;;;;;;;4998787;28;20029;-82
2023/06/06 08:27:03;;;;;;;6.00;1.63;;;;;;;;;;4983148;28;20066;-82
2023/06/06 08:29:28;;;;;;;5.28;1.98;;;;;;;;;;4998906;28;20040;-83
2023/06/06 08:31:54;;;;;;;8.95;1.60;;;;;;;;;;4998813;28;20053;-82
2023/06/06 08:34:22;;;;;;;4.82;1.65;;;;;;;;;;4983384;28;20029;-82
2023/06/06 08:36:48;;;;;;;3.65;1.50;;;;;;;;;;4999272;28;20026;-82
2023/06/06 08:39:15;;;;;;;3.67;1.42;;;;;;;;;;4999117;28;20108;-82
2023/06/06 08:41:49;;;;;;;3.03;1.45;;;;;;;;;;4998632;28;20125;-83
2023/06/06 08:44:15;;;;;;;3.80;1.58;;;;;;;;;;4998822;28;20049;-83
2023/06/06 08:46:41;;;;;;;4.05;1.63;;;;;;;;;;4998329;28;20087;-83
2023/06/06 08:49:08;;;;;;;4.22;1.55;;;;;;;;;;4998906;28;20021;-83
2023/06/06 08:51:48;;;;;;;4.22;1.65;;;;;;;;;;5111056;27;20426;-83
2023/06/06 08:54:14;;;;;;;5.55;1.83;;;;;;;;;;5112361;28;20390;-82
2023/06/06 08:56:44;;;;;;;5.50;1.60;;;;;;;;;;5110073;28;20031;-83
2023/06/06 08:59:10;;;;;;;1.50;1.33;;;;;;;;;;5110487;28;20028;-83
2023/06/06 09:01:39;;;;;;;3.30;1.50;;;;;;;;;;5111106;28;20127;-83
2023/06/06 09:04:07;;;;;;;2.42;1.48;;;;;;;;;;5109808;28;20032;-82
2023/06/06 09:06:38;;;;;;;2.47;1.70;;;;;;;;;;5092904;28;20030;-83
2023/06/06 09:09:04;;;;;;;3.10;1.65;;;;;;;;;;5093017;28;20077;-82
2023/06/06 09:11:29;;;;;;;5.00;1.80;;;;;;;;;;5109810;28;20020;-82
2023/06/06 09:13:55;;;;;;;4.55;1.95;;;;;;;;;;5109655;28;20036;-82
2023/06/06 09:16:21;;;;;;;2.22;1.50;;;;;;;;;;5109807;28;20153;-83
2023/06/06 09:18:49;;;;;;;11.10;2.15;;;;;;;;;;5092558;28;20367;-82
2023/06/06 09:21:15;;;;;;;3.35;1.60;;;;;;;;;;5110346;28;20028;-82
2023/06/06 09:23:40;;;;;;;7.70;1.73;;;;;;;;;;5109806;28;20040;-83
2023/06/06 09:26:18;;;;;;;2.50;1.50;;;;;;;;;;5109469;28;20410;-82
2023/06/06 09:28:44;;;;;;;7.88;1.60;;;;;;;;;;5111157;28;20028;-82
2023/06/06 09:31:27;;;;;;;3.70;1.65;;;;;;;;;;5109515;28;20367;-82
2023/06/06 09:33:54;;;;;;;3.35;1.90;;;;;;;;;;5111116;28;20028;-82
2023/06/06 09:36:24;;;;;;;6.55;1.65;;;;;;;;;;5092920;28;20128;-81
2023/06/06 09:38:54;;;;;;;3.92;1.92;;;;;;;;;;5109883;28;20509;-82
2023/06/06 09:41:21;;;;;;;3.65;1.98;;;;;;;;;;5109975;28;20022;-82
2023/06/06 09:43:47;;;;;;;5.45;2.00;;;;;;;;;;5111447;28;20034;-82
2023/06/06 09:46:16;;;;;;;4.93;1.80;;;;;;;;;;5111031;28;20103;-81
2023/06/06 09:48:43;;;;;;;8.95;1.75;;;;;;;;;;5110269;28;20053;-82
2023/06/06 09:51:12;;;;;;;4.43;1.70;;;;;;;;;;5108360;28;20052;-83
2023/06/06 09:53:37;;;;;;;2.80;1.80;;;;;;;;;;5109694;28;20040;-82
2023/06/06 09:56:03;;;;;;;4.07;1.52;;;;;;;;;;5093736;28;20485;-80
2023/06/06 09:58:31;;;;;;;2.95;1.83;;;;;;;;;;5096289;28;20091;-81
2023/06/06 10:00:58;;;;;;;5.13;2.08;;;;;;;;;;5093910;28;20020;-80
2023/06/06 10:03:24;;;;;;;4.47;1.80;;;;;;;;;;5095705;28;20016;-81
2023/06/06 10:05:51;;;;;;;4.22;2.00;;;;;;;;;;5095613;28;20032;-81
2023/06/06 10:08:18;;;;;;;4.65;1.92;;;;;;;;;;5096302;28;20028;-81
2023/06/06 10:10:46;;;;;;;5.93;1.92;;;;;;;;;;5078296;28;20034;-81
2023/06/06 10:13:19;;;;;;;3.92;1.77;;;;;;;;;;5094735;28;20023;-81
2023/06/06 10:15:45;;;;;;;4.40;2.00;;;;;;;;;;5095968;28;20016;-82
2023/06/06 10:18:12;;;;;;;2.70;1.50;;;;;;;;;;5078585;28;20043;-81
2023/06/06 10:20:38;;;;;;;2.45;1.85;;;;;;;;;;5079018;28;20028;-81
2023/06/06 10:23:04;;;;;;;6.28;1.90;;;;;;;;;;5096606;28;20043;-81
2023/06/06 10:25:30;;;;;;;4.47;1.92;;;;;;;;;;5096298;28;20368;-81
2023/06/06 10:27:58;;;;;;;2.85;1.80;;;;;;;;;;5078421;28;20031;-80
2023/06/06 10:30:30;;;;;;;6.95;2.20;;;;;;;;;;5095439;28;20493;-81
2023/06/06 10:33:26;;;;;;;2.95;1.90;;;;;;;;;;5078248;28;20414;-80
2023/06/06 10:35:56;;;;;;;3.00;1.88;;;;;;;;;;5095638;28;20020;-81
2023/06/06 10:38:21;;;;;;;3.38;1.77;;;;;;;;;;5096047;28;20028;-80
2023/06/06 10:40:55;;;;;;;4.90;1.70;;;;;;;;;;5077339;28;20467;-81
2023/06/06 10:43:43;;;;;;;3.97;2.03;;;;;;;;;;5094818;28;20028;-81
2023/06/06 10:46:10;;;;;;;5.13;1.90;;;;;;;;;;5094356;28;20030;-82
2023/06/06 10:48:39;;;;;;;4.07;2.00;;;;;;;;;;5094386;28;20120;-82
2023/06/06 10:51:09;;;;;;;8.48;2.03;;;;;;;;;;5094806;28;20044;-82
2023/06/06 10:53:35;;;;;;;3.25;1.92;;;;;;;;;;5094240;28;20032;-82
2023/06/06 10:56:03;;;;;;;2.90;1.98;;;;;;;;;;5093936;28;20466;-82
2023/06/06 10:58:33;;;;;;;3.75;1.92;;;;;;;;;;5093897;28;20122;-82
2023/06/06 11:01:04;;;;;;;5.00;1.83;;;;;;;;;;5093988;28;20016;-83
2023/06/06 11:03:39;;;;;;;3.60;1.85;;;;;;;;;;5095044;28;20032;-82
2023/06/06 11:06:16;;;;;;;3.15;2.03;;;;;;;;;;5093948;28;20020;-82
2023/06/06 11:08:43;;;;;;;4.15;2.10;;;;;;;;;;5094074;28;20036;-82
2023/06/06 11:11:23;;;;;;;2.78;1.95;;;;;;;;;;5093808;28;20022;-82
2023/06/06 11:13:56;;;;;;;4.47;1.80;;;;;;;;;;5092449;28;20024;-83
2023/06/06 11:16:41;;;;;;;3.33;1.95;;;;;;;;;;5096221;28;20520;-83
2023/06/06 11:19:08;;;;;;;5.82;2.38;;;;;;;;;;5094792;28;20419;-82
2023/06/06 11:21:38;;;;;;;4.63;2.35;;;;;;;;;;5093787;28;20020;-82
2023/06/06 11:24:04;;;;;;;4.35;2.03;;;;;;;;;;5092843;28;20035;-82
2023/06/06 11:26:30;;;;;;;8.57;2.35;;;;;;;;;;5093528;28;20024;-82
2023/06/06 11:28:55;;;;;;;3.72;2.10;;;;;;;;;;5094596;28;20493;-81
2023/06/06 11:31:23;;;;;;;2.83;2.03;;;;;;;;;;5094440;28;20119;-82
2023/06/06 11:33:48;;;;;;;2.95;2.20;;;;;;;;;;5095229;28;20028;-81
2023/06/06 11:36:14;;;;;;;4.18;2.13;;;;;;;;;;5095224;28;20085;-81
2023/06/06 11:38:41;;;;;;;4.63;2.17;;;;;;;;;;5094156;28;20078;-82
2023/06/06 11:41:07;;;;;;;5.15;2.25;;;;;;;;;;5090704;28;20529;-82
2023/06/06 11:43:33;;;;;;;4.05;2.22;;;;;;;;;;5093237;28;20032;-82
2023/06/06 11:46:05;;;;;;;10.10;3.00;;;;;;;;;;5075977;28;20402;-82
2023/06/06 11:48:31;;;;;;;8.60;1.98;;;;;;;;;;5094034;28;20124;-82
2023/06/06 11:50:56;;;;;;;3.88;2.17;;;;;;;;;;5076171;28;20130;-82
2023/06/06 11:53:29;;;;;;;2.63;1.83;;;;;;;;;;5093337;28;20032;-82
2023/06/06 11:55:55;;;;;;;3.83;2.33;;;;;;;;;;5092855;28;20402;-82
2023/06/06 11:58:20;;;;;;;3.65;2.20;;;;;;;;;;5093652;28;20028;-82
2023/06/06 12:00:46;;;;;;;5.05;1.90;;;;;;;;;;5093283;28;20157;-82
2023/06/06 12:03:15;;;;;;;4.63;2.20;;;;;;;;;;5093993;28;20062;-82
2023/06/06 12:05:41;;;;;;;4.10;2.50;;;;;;;;;;5093007;28;20028;-82
2023/06/06 12:08:07;;;;;;;3.65;2.20;;;;;;;;;;5092870;28;20024;-83
2023/06/06 12:10:33;;;;;;;3.47;2.20;;;;;;;;;;5094680;28;20069;-82
2023/06/06 12:12:59;;;;;;;3.58;2.50;;;;;;;;;;5059320;28;20555;-83
2023/06/06 12:15:28;;;;;;;7.57;2.35;;;;;;;;;;5093252;28;20094;-81
2023/06/06 12:18:00;;;;;;;4.13;2.15;;;;;;;;;;5093745;28;20089;-82
2023/06/06 12:20:26;;;;;;;4.60;2.17;;;;;;;;;;5094960;28;20020;-81
2023/06/06 12:22:52;;;;;;;11.93;2.28;;;;;;;;;;5095080;28;20034;-81
2023/06/06 12:25:26;;;;;;;6.13;2.55;;;;;;;;;;5094834;28;20085;-82
2023/06/06 12:27:53;;;;;;;4.30;2.15;;;;;;;;;;5094691;28;20032;-82
2023/06/06 12:30:31;;;;;;;4.55;2.30;;;;;;;;;;5053988;28;20153;-82
2023/06/06 12:32:58;;;;;;;4.10;2.35;;;;;;;;;;5073587;28;20028;-82
2023/06/06 12:35:24;;;;;;;5.40;2.35;;;;;;;;;;5074786;28;20028;-81
2023/06/06 12:37:50;;;;;;;7.30;2.35;;;;;;;;;;5092209;28;20059;-82
2023/06/06 12:40:33;;;;;;;2.40;2.00;;;;;;;;;;5091738;28;20025;-81
2023/06/06 12:43:04;;;;;;;3.78;2.25;;;;;;;;;;5075529;28;20036;-82
2023/06/06 12:45:35;;;;;;;2.40;1.63;;;;;;;;;;5074560;28;20029;-80
2023/06/06 12:48:02;;;;;;;2.88;2.10;;;;;;;;;;5072202;28;20024;-81
2023/06/06 12:50:27;;;;;;;5.18;2.17;;;;;;;;;;5088663;28;20598;-81
2023/06/06 12:52:53;;;;;;;3.42;2.15;;;;;;;;;;5089284;28;20037;-81
2023/06/06 12:55:18;;;;;;;3.53;2.13;;;;;;;;;;5074734;28;20070;-81
2023/06/06 12:57:45;;;;;;;2.20;1.83;;;;;;;;;;5089702;28;20029;-82
2023/06/06 13:00:13;;;;;;;4.75;2.20;;;;;;;;;;5091585;28;20016;-82
2023/06/06 13:02:39;;;;;;;2.72;1.90;;;;;;;;;;5075295;28;20032;-82
2023/06/06 13:05:05;;;;;;;4.45;2.20;;;;;;;;;;5075857;28;20073;-82
2023/06/06 13:07:31;;;;;;;2.92;1.95;;;;;;;;;;5091976;28;20449;-82
2023/06/06 13:09:58;;;;;;;2.80;2.15;;;;;;;;;;5091222;28;20108;-82
2023/06/06 13:12:25;;;;;;;4.00;2.10;;;;;;;;;;5075543;28;20123;-81
2023/06/06 13:14:51;;;;;;;5.95;2.47;;;;;;;;;;5074693;28;20024;-82
2023/06/06 13:17:16;;;;;;;5.00;2.10;;;;;;;;;;5091906;28;20077;-82
2023/06/06 13:19:43;;;;;;;3.65;1.92;;;;;;;;;;5074943;28;20032;-82
2023/06/06 13:22:09;;;;;;;3.95;2.00;;;;;;;;;;5091701;28;20040;-82
2023/06/06 13:24:34;;;;;;;2.63;2.00;;;;;;;;;;5091612;28;20027;-81
2023/06/06 13:27:00;;;;;;;6.00;2.38;;;;;;;;;;5074781;28;20039;-81
2023/06/06 13:29:26;;;;;;;3.50;1.90;;;;;;;;;;5091134;28;20036;-81
2023/06/06 13:31:52;;;;;;;3.30;2.13;;;;;;;;;;5091564;28;20036;-83
2023/06/06 13:34:18;;;;;;;2.45;1.95;;;;;;;;;;5075245;28;20028;-85
2023/06/06 13:36:43;;;;;;;7.18;2.10;;;;;;;;;;5092373;28;20069;-81
2023/06/06 13:39:09;;;;;;;9.07;2.30;;;;;;;;;;5078568;28;20032;-80
2023/06/06 13:41:35;;;;;;;4.03;1.95;;;;;;;;;;5077834;28;20035;-80
2023/06/06 13:44:01;;;;;;;13.80;2.17;;;;;;;;;;5096696;28;20050;-81
2023/06/06 13:46:26;;;;;;;3.88;2.17;;;;;;;;;;5094604;28;20024;-80
2023/06/06 13:48:53;;;;;;;7.85;2.10;;;;;;;;;;5095833;28;20567;-81
2023/06/06 13:51:19;;;;;;;4.80;2.00;;;;;;;;;;5095738;28;20080;-81
2023/06/06 13:53:44;;;;;;;5.70;1.92;;;;;;;;;;5094562;28;20071;-81
2023/06/06 13:56:10;;;;;;;3.85;1.80;;;;;;;;;;5094721;28;20028;-81
2023/06/06 13:58:48;;;;;;;3.75;2.20;;;;;;;;;;5094751;28;20044;-81
2023/06/06 14:01:15;;;;;;;4.22;2.20;;;;;;;;;;5097095;28;20031;-81
2023/06/06 14:03:41;;;;;;;3.85;1.80;;;;;;;;;;5095472;28;20031;-81
2023/06/06 14:06:06;;;;;;;4.75;2.05;;;;;;;;;;5077549;28;20028;-81
2023/06/06 14:08:32;;;;;;;3.83;2.13;;;;;;;;;;5095522;28;20028;-80
2023/06/06 14:10:57;;;;;;;4.63;2.13;;;;;;;;;;5093556;28;20036;-81
2023/06/06 14:13:23;;;;;;;2.42;1.67;;;;;;;;;;5092763;28;20032;-81
2023/06/06 14:15:48;;;;;;;3.15;1.85;;;;;;;;;;5093896;28;20086;-81
2023/06/06 14:18:13;;;;;;;6.47;1.75;;;;;;;;;;5095384;28;20028;-81
2023/06/06 14:20:49;;;;;;;2.80;1.95;;;;;;;;;;5095461;28;20430;-81
2023/06/06 14:23:17;;;;;;;3.88;2.05;;;;;;;;;;5095227;28;20024;-81
2023/06/06 14:25:45;;;;;;;4.28;2.05;;;;;;;;;;5102375;28;20034;-81
2023/06/06 14:28:14;;;;;;;3.42;2.13;;;;;;;;;;5102350;28;20478;-82
2023/06/06 14:30:40;;;;;;;4.72;1.85;;;;;;;;;;5084723;28;20020;-82
2023/06/06 14:33:05;;;;;;;7.50;2.22;;;;;;;;;;5097790;28;20032;-82
2023/06/06 14:35:30;;;;;;;6.43;2.50;;;;;;;;;;5093756;28;20062;-81
2023/06/06 14:37:56;;;;;;;3.40;2.00;;;;;;;;;;5077787;28;20024;-82
2023/06/06 14:40:21;;;;;;;2.53;1.67;;;;;;;;;;5077859;28;20504;-81